Terminal Aerodrome Forecast
Issued by NWS Goodland, KS

Home | Current Version | Previous Version | Text Only | Print | Product List | Glossary On
Versions: 1 2 3 4 5 6 7 8 9 10 11 12 13 14 15 16 17 18 19 20 21 22
000
FTUS43 KGLD 151236 AAA
TAFGLD
TAF AMD
KGLD 151236Z 1513/1612 34021G31KT P6SM SCT015 BKN040
      TEMPO 1513/1517 SCT015 BKN040
     FM151800 34031G42KT P6SM SCT015 BKN025
     FM160000 34019G27KT P6SM SCT015 BKN025
     FM160200 33015KT P6SM BKN015
     FM160600 33011KT P6SM SCT015 SCT025=

USA.gov is the U.S. government's official web portal to all federal, state and local government web resources and services.